METAR Formatted Surface Weather Observation
Issued by NWS

Home | Current Version | Previous Version | Text Only | Print | Product List | Glossary On
Versions: 1 2 3 4 5 6 7 8 9 10 11 12 13 14 15 16 17 18 19 20 21 22 23 24 25 26 27 28 29 30 31 32 33 34
000
SAUS44 KSHV 102156
MTRBKB
METAR KBKB 102154Z AUTO VRB04KT 10SM SCT055 34/20 A2997 RMK AO2
SLP173 T03390200



USA.gov is the U.S. government's official web portal to all federal, state and local government web resources and services.